createdAt,value
2022-12-27T00:02:25.703Z,8.97
2022-12-27T00:04:52.141Z,9.19
2022-12-27T00:07:21.065Z,9.74
2022-12-27T00:09:47.440Z,8.92
2022-12-27T00:12:13.912Z,8.95
2022-12-27T00:14:40.460Z,8.67
2022-12-27T00:17:06.862Z,8.55
2022-12-27T00:19:33.323Z,9.11
2022-12-27T00:21:59.772Z,9.01
2022-12-27T00:24:31.755Z,8.88
2022-12-27T00:26:58.199Z,8.70
2022-12-27T00:29:24.664Z,8.87
2022-12-27T00:31:51.088Z,9.07
2022-12-27T00:34:17.528Z,8.91
2022-12-27T00:36:43.914Z,8.84
2022-12-27T00:39:10.257Z,9.38
2022-12-27T00:41:36.670Z,9.66
2022-12-27T00:44:03.020Z,9.31
2022-12-27T00:46:32.306Z,9.03
2022-12-27T00:48:58.769Z,9.42
2022-12-27T00:51:25.154Z,9.73
2022-12-27T00:53:51.713Z,9.56
2022-12-27T00:56:18.221Z,9.19
2022-12-27T00:58:44.594Z,9.36
2022-12-27T01:01:11.155Z,9.35
2022-12-27T01:03:37.730Z,9.40
2022-12-27T01:06:04.154Z,9.78
2022-12-27T01:08:35.336Z,10.10
2022-12-27T01:11:09.038Z,9.47
2022-12-27T01:13:35.663Z,9.43
2022-12-27T01:16:02.166Z,9.35
2022-12-27T01:18:30.527Z,9.62
2022-12-27T01:20:57.025Z,9.71
2022-12-27T01:23:26.297Z,9.98
2022-12-27T01:28:39.191Z,9.15
2022-12-27T01:31:05.609Z,8.87
2022-12-27T01:33:32.083Z,9.31
2022-12-27T01:36:00.734Z,9.51
2022-12-27T01:38:27.086Z,9.65
2022-12-27T01:40:53.435Z,9.55
2022-12-27T01:43:21.809Z,9.25
2022-12-27T01:45:48.421Z,9.24
2022-12-27T01:48:14.853Z,9.37
2022-12-27T01:50:41.255Z,9.97
2022-12-27T01:53:07.646Z,10.02
2022-12-27T01:55:34.013Z,9.65
2022-12-27T01:58:00.451Z,9.54
2022-12-27T02:00:26.787Z,9.26
2022-12-27T02:02:56.196Z,9.01
2022-12-27T02:05:24.150Z,8.86
2022-12-27T02:07:50.718Z,9.27
2022-12-27T02:10:17.102Z,8.60
2022-12-27T02:12:43.452Z,8.75
2022-12-27T02:15:09.801Z,8.88
2022-12-27T02:17:36.164Z,9.03
2022-12-27T02:20:13.311Z,9.39
2022-12-27T02:22:46.052Z,9.53
2022-12-27T02:25:14.895Z,9.20
2022-12-27T02:27:41.508Z,9.43
2022-12-27T02:30:08.151Z,8.99
2022-12-27T02:32:36.246Z,9.24
2022-12-27T02:35:02.635Z,8.97
2022-12-27T02:37:32.905Z,8.88
2022-12-27T02:40:02.488Z,9.16
2022-12-27T02:42:31.774Z,9.77
2022-12-27T02:44:58.245Z,9.87
2022-12-27T02:47:26.831Z,9.94
2022-12-27T02:49:53.172Z,9.89
2022-12-27T02:52:20.852Z,9.29
2022-12-27T02:54:47.422Z,9.11
2022-12-27T02:57:13.764Z,9.70
2022-12-27T02:59:42.328Z,10.02
2022-12-27T03:02:11.499Z,9.24
2022-12-27T03:04:37.998Z,9.49
2022-12-27T03:07:04.364Z,9.11
2022-12-27T03:15:10.612Z,9.58
2022-12-27T03:17:49.241Z,9.38
2022-12-27T03:20:20.869Z,9.79
2022-12-27T03:22:56.643Z,9.51
2022-12-27T03:28:18.514Z,9.48
2022-12-27T03:30:44.940Z,9.81
2022-12-27T03:34:07.758Z,9.25
2022-12-27T03:36:13.422Z,9.63
2022-12-27T03:38:42.985Z,9.02
2022-12-27T03:41:16.354Z,8.88
2022-12-27T03:43:42.936Z,8.56
2022-12-27T03:46:09.309Z,8.44
2022-12-27T03:48:35.699Z,8.36
2022-12-27T03:51:04.883Z,8.35
2022-12-27T03:53:45.999Z,8.64
2022-12-27T03:56:14.024Z,8.56
2022-12-27T03:58:40.567Z,8.74
2022-12-27T04:01:06.960Z,8.45
2022-12-27T04:03:36.179Z,8.75
2022-12-27T04:06:06.514Z,9.28
2022-12-27T04:08:42.124Z,8.83
2022-12-27T04:11:08.496Z,9.07
2022-12-27T04:13:34.814Z,8.82
2022-12-27T04:16:01.286Z,8.52
2022-12-27T04:18:27.732Z,8.54
2022-12-27T04:20:56.972Z,8.36
2022-12-27T04:23:24.712Z,8.56
2022-12-27T04:25:51.173Z,8.98
2022-12-27T04:28:17.585Z,8.84
2022-12-27T04:30:43.942Z,9.48
2022-12-27T04:33:10.780Z,9.38
2022-12-27T04:35:37.579Z,9.67
2022-12-27T04:38:05.618Z,10.08
2022-12-27T04:40:32.000Z,10.67
2022-12-27T04:42:58.523Z,10.81
2022-12-27T04:45:24.861Z,10.91
2022-12-27T04:47:56.311Z,10.87
2022-12-27T04:50:35.078Z,10.90
2022-12-27T04:53:02.926Z,10.10
2022-12-27T04:55:40.071Z,9.84
2022-12-27T04:58:06.704Z,10.76
2022-12-27T05:00:42.929Z,10.00
2022-12-27T05:03:09.443Z,10.10
2022-12-27T05:05:42.534Z,9.97
2022-12-27T05:08:21.740Z,9.95
2022-12-27T05:10:48.316Z,9.44
2022-12-27T05:13:14.675Z,9.89
2022-12-27T05:15:41.422Z,10.34
2022-12-27T05:18:07.997Z,10.14
2022-12-27T05:20:46.279Z,9.72
2022-12-27T05:23:14.370Z,10.39
2022-12-27T05:25:40.968Z,9.89
2022-12-27T05:28:07.382Z,9.38
2022-12-27T05:30:33.937Z,9.36
2022-12-27T05:33:00.352Z,10.33
2022-12-27T05:35:28.183Z,10.68
2022-12-27T05:37:55.132Z,10.19
2022-12-27T05:40:26.038Z,9.97
2022-12-27T05:42:54.841Z,9.15
2022-12-27T05:45:30.275Z,8.79
2022-12-27T05:47:56.612Z,9.39
2022-12-27T05:53:25.429Z,9.01
2022-12-27T05:55:57.090Z,8.72
2022-12-27T05:58:23.460Z,8.46
2022-12-27T06:09:29.268Z,7.98
2022-12-27T06:14:50.584Z,8.14
2022-12-27T06:17:17.108Z,8.17
2022-12-27T06:20:02.144Z,8.48
2022-12-27T06:22:33.416Z,9.11
2022-12-27T06:27:53.221Z,8.69
2022-12-27T06:30:24.465Z,8.37
2022-12-27T06:44:03.542Z,8.64
2022-12-27T06:46:56.609Z,8.65
2022-12-27T06:54:50.991Z,8.38
2022-12-27T07:13:44.912Z,8.52
2022-12-27T07:16:14.599Z,8.92
2022-12-27T07:18:45.361Z,8.64
2022-12-27T07:32:25.869Z,8.18
2022-12-27T08:00:33.366Z,9.33
2022-12-27T08:13:57.811Z,9.35
2022-12-27T08:16:36.227Z,9.93
2022-12-27T08:30:27.849Z,9.19
2022-12-27T08:33:01.289Z,9.36
2022-12-27T08:46:53.668Z,10.21
2022-12-27T09:27:31.553Z,11.13
2022-12-27T09:43:50.552Z,11.20
2022-12-27T09:46:22.356Z,10.96
2022-12-27T09:59:53.759Z,10.89
2022-12-27T10:13:35.267Z,12.07
2022-12-27T10:16:04.693Z,12.29
2022-12-27T10:26:38.335Z,11.46
2022-12-27T10:29:04.990Z,11.58
2022-12-27T10:31:34.263Z,11.60
2022-12-27T10:36:10.721Z,11.40
2022-12-27T10:37:05.823Z,11.27
2022-12-27T10:39:43.202Z,10.01
2022-12-27T10:42:12.217Z,10.12
2022-12-27T10:44:41.151Z,10.43
2022-12-27T10:47:07.617Z,10.27
2022-12-27T10:49:34.070Z,10.65
2022-12-27T11:03:21.921Z,10.90
2022-12-27T11:05:48.474Z,10.42
2022-12-27T11:11:32.261Z,10.18
2022-12-27T11:36:09.715Z,10.95
2022-12-27T13:12:52.296Z,11.66
2022-12-27T13:15:21.799Z,11.17
2022-12-27T13:40:32.057Z,11.02
2022-12-27T13:48:49.610Z,11.37
2022-12-27T14:05:17.326Z,11.39
2022-12-27T14:24:44.275Z,10.94
2022-12-27T14:30:25.266Z,10.97
2022-12-27T14:38:22.396Z,10.92
2022-12-27T14:54:42.464Z,10.24
2022-12-27T14:57:11.138Z,10.80
2022-12-27T15:11:05.267Z,11.70
2022-12-27T15:13:33.817Z,11.29
2022-12-27T15:21:48.306Z,10.71
2022-12-27T15:24:21.512Z,10.64
2022-12-27T15:26:52.700Z,10.71
2022-12-27T15:29:22.701Z,10.99
2022-12-27T15:37:20.760Z,11.03
2022-12-27T15:42:37.300Z,11.18
2022-12-27T17:42:06.420Z,8.45
